createdAt,value
2019-05-18T00:00:44.644Z,98831.00
2019-05-18T00:03:15.201Z,98833.00
2019-05-18T00:05:45.663Z,98828.00
2019-05-18T00:08:16.202Z,98836.00
2019-05-18T00:10:46.783Z,98840.00
2019-05-18T00:13:17.302Z,98834.00
2019-05-18T00:15:47.858Z,98839.00
2019-05-18T00:18:18.492Z,98837.00
2019-05-18T00:20:49.058Z,98836.00
2019-05-18T00:23:19.618Z,98829.00
2019-05-18T00:25:50.256Z,98826.00
2019-05-18T00:28:20.809Z,98833.00
2019-05-18T00:30:51.486Z,98832.00
2019-05-18T00:33:22.093Z,98840.00
2019-05-18T00:35:52.602Z,98833.00
2019-05-18T00:38:23.316Z,98841.00
2019-05-18T00:40:53.854Z,98839.00
2019-05-18T00:43:25.850Z,98835.00
2019-05-18T00:45:56.394Z,98829.00
2019-05-18T00:48:27.055Z,98832.00
2019-05-18T00:50:57.590Z,98839.00
2019-05-18T00:53:28.138Z,98835.00
2019-05-18T00:56:00.026Z,98834.00
2019-05-18T00:58:30.853Z,98841.00
2019-05-18T01:01:01.411Z,98839.00
2019-05-18T01:03:33.171Z,98834.00
2019-05-18T01:06:03.753Z,98833.00
2019-05-18T01:08:35.436Z,98827.00
2019-05-18T01:11:07.301Z,98826.00
2019-05-18T01:13:37.857Z,98817.00
2019-05-18T01:16:09.470Z,98818.00
2019-05-18T01:18:41.325Z,98822.00
2019-05-18T01:21:11.866Z,98824.00
2019-05-18T01:23:42.511Z,98819.00
2019-05-18T01:26:13.087Z,98826.00
2019-05-18T01:28:43.615Z,98824.00
2019-05-18T01:31:14.335Z,98832.00
2019-05-18T01:33:44.872Z,98825.00
2019-05-18T01:36:15.458Z,98826.00
2019-05-18T01:38:45.997Z,98826.00
2019-05-18T01:41:16.532Z,98826.00
2019-05-18T01:43:47.042Z,98827.00
2019-05-18T01:46:17.627Z,98829.00
2019-05-18T01:48:49.233Z,98840.00
2019-05-18T01:51:20.900Z,98830.00
2019-05-18T01:53:51.452Z,98836.00
2019-05-18T01:56:22.014Z,98832.00
2019-05-18T01:58:52.708Z,98816.00
2019-05-18T02:01:24.758Z,98818.00
2019-05-18T02:03:55.426Z,98822.00
2019-05-18T02:06:26.086Z,98812.00
2019-05-18T02:08:56.788Z,98809.00
2019-05-18T02:11:27.330Z,98821.00
2019-05-18T02:13:57.876Z,98814.00
2019-05-18T02:16:28.441Z,98813.00
2019-05-18T02:18:58.968Z,98810.00
2019-05-18T02:21:29.537Z,98813.00
2019-05-18T02:24:01.302Z,98813.00
2019-05-18T02:26:31.993Z,98812.00
2019-05-18T02:29:03.166Z,98808.00
2019-05-18T02:31:33.759Z,98804.00
2019-05-18T02:34:04.383Z,98807.00
2019-05-18T02:36:36.847Z,98803.00
2019-05-18T02:39:09.365Z,98799.00
2019-05-18T02:41:40.071Z,98801.00
2019-05-18T02:44:10.832Z,98794.00
2019-05-18T02:46:41.462Z,98796.00
2019-05-18T02:49:11.985Z,98792.00
2019-05-18T02:51:43.662Z,98783.00
2019-05-18T02:54:15.685Z,98787.00
2019-05-18T02:56:46.481Z,98796.00
2019-05-18T02:59:17.127Z,98785.00
2019-05-18T03:01:47.709Z,98784.00
2019-05-18T03:04:18.231Z,98783.00
2019-05-18T03:06:48.794Z,98781.00
2019-05-18T03:09:19.383Z,98785.00
2019-05-18T03:11:49.989Z,98777.00
2019-05-18T03:14:20.601Z,98780.00
2019-05-18T03:16:51.377Z,98777.00
2019-05-18T03:19:21.920Z,98780.00
2019-05-18T03:21:52.516Z,98777.00
2019-05-18T03:24:24.541Z,98770.00
2019-05-18T03:26:55.095Z,98778.00
2019-05-18T03:29:25.663Z,98773.00
2019-05-18T03:31:56.290Z,98778.00
2019-05-18T03:34:27.138Z,98783.00
2019-05-18T03:37:16.745Z,98731.00
2019-05-18T03:39:47.570Z,98778.00
2019-05-18T03:42:18.144Z,98778.00
2019-05-18T03:44:48.897Z,98776.00
2019-05-18T03:47:19.821Z,98768.00
2019-05-18T03:49:50.360Z,98765.00
2019-05-18T03:52:20.992Z,98769.00
2019-05-18T03:54:51.498Z,98772.00
2019-05-18T03:57:23.575Z,98774.00
2019-05-18T03:59:54.272Z,98758.00
2019-05-18T04:02:24.847Z,98767.00
2019-05-18T04:04:57.299Z,98768.00
2019-05-18T04:07:28.961Z,98764.00
2019-05-18T04:09:59.497Z,98777.00
2019-05-18T04:12:31.173Z,98784.00
2019-05-18T04:15:01.732Z,98781.00
2019-05-18T04:17:32.475Z,98784.00
2019-05-18T04:20:03.023Z,98761.00
2019-05-18T04:22:33.541Z,98767.00
2019-05-18T04:25:04.268Z,98772.00
2019-05-18T04:27:34.819Z,98768.00
2019-05-18T04:30:05.968Z,98776.00
2019-05-18T04:32:37.957Z,98764.00
2019-05-18T04:35:09.123Z,98770.00
2019-05-18T04:37:39.721Z,98772.00
2019-05-18T04:40:10.915Z,98785.00
2019-05-18T04:42:43.279Z,98773.00
2019-05-18T04:45:14.781Z,98766.00
2019-05-18T04:47:48.493Z,98768.00
2019-05-18T04:50:18.006Z,98781.00
2019-05-18T04:52:48.609Z,98767.00
2019-05-18T04:55:19.280Z,98766.00
2019-05-18T04:57:49.933Z,98768.00
2019-05-18T05:00:20.526Z,98765.00
2019-05-18T05:02:52.196Z,98760.00
2019-05-18T05:05:22.778Z,98760.00
2019-05-18T05:07:53.381Z,98752.00
2019-05-18T05:10:23.940Z,98758.00
2019-05-18T05:12:54.629Z,98762.00
2019-05-18T05:15:25.281Z,98755.00
2019-05-18T05:17:55.891Z,98762.00
2019-05-18T05:20:26.466Z,98754.00
2019-05-18T05:22:57.045Z,98755.00
2019-05-18T05:25:29.440Z,98754.00
2019-05-18T05:27:59.979Z,98753.00
2019-05-18T05:30:30.616Z,98745.00
2019-05-18T05:33:01.239Z,98740.00
2019-05-18T05:35:31.802Z,98737.00
2019-05-18T05:38:03.708Z,98748.00
2019-05-18T05:40:34.300Z,98739.00
2019-05-18T05:43:04.832Z,98742.00
2019-05-18T05:45:35.430Z,98741.00
2019-05-18T05:48:06.055Z,98740.00
2019-05-18T05:50:36.908Z,98742.00
2019-05-18T05:53:10.684Z,98741.00
2019-05-18T05:55:42.563Z,98743.00
2019-05-18T05:58:13.235Z,98737.00
2019-05-18T06:00:43.781Z,98728.00
2019-05-18T06:03:14.341Z,98732.00
2019-05-18T06:05:45.005Z,98721.00
2019-05-18T06:08:15.584Z,98734.00
2019-05-18T06:10:47.643Z,98730.00
2019-05-18T06:13:18.269Z,98731.00
2019-05-18T06:15:53.686Z,98725.00
2019-05-18T06:18:24.279Z,98726.00
2019-05-18T06:20:54.955Z,98719.00
2019-05-18T06:23:25.500Z,98726.00
2019-05-18T06:25:57.153Z,98730.00
2019-05-18T06:28:27.784Z,98721.00
2019-05-18T06:30:58.460Z,98728.00
2019-05-18T06:33:29.036Z,98732.00
2019-05-18T06:35:59.593Z,98725.00
2019-05-18T06:38:30.153Z,98727.00
2019-05-18T06:41:00.739Z,98729.00
2019-05-18T06:43:31.266Z,98732.00
2019-05-18T06:46:01.829Z,98732.00
2019-05-18T06:48:32.330Z,98737.00
2019-05-18T06:51:07.069Z,98742.00
2019-05-18T06:53:36.492Z,98740.00
2019-05-18T06:56:07.146Z,98747.00
2019-05-18T06:58:39.004Z,98744.00
2019-05-18T07:01:09.588Z,98739.00
2019-05-18T07:03:44.595Z,98740.00
2019-05-18T07:06:13.719Z,98747.00
2019-05-18T07:08:45.730Z,98750.00
2019-05-18T07:11:16.305Z,98758.00
2019-05-18T07:13:47.005Z,98762.00
2019-05-18T07:16:17.659Z,98750.00
2019-05-18T07:18:48.209Z,98758.00
2019-05-18T07:21:22.441Z,98755.00
2019-05-18T07:23:51.127Z,98761.00
2019-05-18T07:26:21.726Z,98762.00
2019-05-18T07:28:52.311Z,98761.00
2019-05-18T07:31:23.048Z,98760.00
2019-05-18T07:33:53.695Z,98757.00
2019-05-18T07:36:26.238Z,98755.00
2019-05-18T07:38:56.901Z,98750.00
2019-05-18T07:41:27.507Z,98757.00
2019-05-18T07:43:58.135Z,98746.00
2019-05-18T07:46:28.787Z,98752.00
2019-05-18T07:48:59.336Z,98743.00
2019-05-18T07:51:36.967Z,98744.00
2019-05-18T07:54:02.807Z,98746.00
2019-05-18T07:56:33.600Z,98746.00
2019-05-18T07:59:04.397Z,98753.00
2019-05-18T08:01:36.437Z,98747.00
2019-05-18T08:04:07.018Z,98744.00
2019-05-18T08:06:37.637Z,98744.00
2019-05-18T08:09:09.346Z,98743.00
2019-05-18T08:11:39.950Z,98751.00
2019-05-18T08:14:10.517Z,98752.00
2019-05-18T08:16:41.174Z,98742.00
2019-05-18T08:19:11.747Z,98744.00
2019-05-18T08:21:52.641Z,98745.00
2019-05-18T08:24:14.779Z,98751.00
2019-05-18T08:26:45.342Z,98757.00
2019-05-18T08:29:17.047Z,98754.00
2019-05-18T08:31:47.620Z,98752.00
2019-05-18T08:34:18.163Z,98751.00
2019-05-18T08:36:48.708Z,98753.00
2019-05-18T08:39:19.260Z,98747.00
2019-05-18T08:41:49.900Z,98749.00
2019-05-18T08:44:20.682Z,98749.00
2019-05-18T08:46:51.300Z,98746.00
2019-05-18T08:49:21.877Z,98749.00
2019-05-18T08:52:07.203Z,98748.00
2019-05-18T08:54:24.974Z,98754.00
2019-05-18T08:56:55.511Z,98755.00
2019-05-18T08:59:26.069Z,98752.00
2019-05-18T09:01:56.687Z,98753.00
2019-05-18T09:04:28.360Z,98755.00
2019-05-18T09:06:58.914Z,98754.00
2019-05-18T09:09:29.533Z,98747.00
2019-05-18T09:12:00.192Z,98752.00
2019-05-18T09:14:30.706Z,98755.00
2019-05-18T09:17:01.247Z,98764.00
2019-05-18T09:19:32.905Z,98756.00
2019-05-18T09:22:05.268Z,98753.00
2019-05-18T09:24:36.160Z,98762.00
2019-05-18T09:27:06.971Z,98752.00
2019-05-18T09:29:37.508Z,98754.00
2019-05-18T09:32:08.040Z,98754.00
2019-05-18T09:34:38.580Z,98758.00
2019-05-18T09:37:09.134Z,98765.00
2019-05-18T09:39:39.761Z,98749.00
2019-05-18T09:42:10.354Z,98754.00
2019-05-18T09:44:40.900Z,98743.00
2019-05-18T09:47:12.599Z,98744.00
2019-05-18T09:49:43.186Z,98738.00
2019-05-18T09:52:13.793Z,98738.00
2019-05-18T09:54:44.470Z,98740.00
2019-05-18T09:57:15.034Z,98750.00
2019-05-18T09:59:45.627Z,98752.00
2019-05-18T10:02:18.035Z,98748.00
2019-05-18T10:04:48.601Z,98750.00
2019-05-18T10:07:19.321Z,98750.00
2019-05-18T10:09:51.482Z,98743.00
2019-05-18T10:12:24.685Z,98746.00
2019-05-18T10:14:54.442Z,98746.00
2019-05-18T10:17:25.024Z,98743.00
2019-05-18T10:19:55.545Z,98748.00
2019-05-18T10:22:26.124Z,98734.00
2019-05-18T10:24:56.785Z,98737.00
2019-05-18T10:27:27.368Z,98738.00
2019-05-18T10:29:57.902Z,98742.00
2019-05-18T10:32:28.538Z,98738.00
2019-05-18T10:34:59.119Z,98745.00
2019-05-18T10:37:29.661Z,98745.00
2019-05-18T10:40:01.301Z,98739.00
2019-05-18T10:42:32.262Z,98740.00
2019-05-18T10:45:02.876Z,98733.00
2019-05-18T10:47:33.489Z,98737.00
2019-05-18T10:50:04.178Z,98732.00
2019-05-18T10:52:34.774Z,98741.00
2019-05-18T10:55:05.903Z,98741.00
2019-05-18T10:57:55.503Z,98752.00
2019-05-18T11:00:26.587Z,98735.00
2019-05-18T11:02:57.204Z,98728.00
2019-05-18T11:05:27.754Z,98725.00
2019-05-18T11:07:59.423Z,98735.00
2019-05-18T11:10:29.989Z,98724.00
2019-05-18T11:13:00.555Z,98735.00
2019-05-18T11:15:31.121Z,98728.00
2019-05-18T11:18:01.795Z,98726.00
2019-05-18T11:20:32.324Z,98726.00
2019-05-18T11:23:02.916Z,98736.00
2019-05-18T11:25:33.569Z,98727.00
2019-05-18T11:28:04.293Z,98718.00
2019-05-18T11:30:34.959Z,98721.00
2019-05-18T11:33:05.716Z,98716.00
2019-05-18T11:35:37.387Z,98717.00
2019-05-18T11:38:07.950Z,98715.00
2019-05-18T11:40:38.522Z,98713.00
2019-05-18T11:43:11.113Z,98704.00
2019-05-18T11:45:41.706Z,98710.00
2019-05-18T11:48:12.315Z,98711.00
2019-05-18T11:50:42.898Z,98721.00
2019-05-18T11:53:13.463Z,98708.00
2019-05-18T11:55:44.039Z,98712.00
2019-05-18T11:58:16.308Z,98706.00
2019-05-18T12:00:47.452Z,98700.00
2019-05-18T12:03:18.137Z,98705.00
2019-05-18T12:05:48.728Z,98697.00
2019-05-18T12:08:19.380Z,98704.00
2019-05-18T12:10:50.059Z,98696.00
2019-05-18T12:13:22.409Z,98701.00
2019-05-18T12:15:53.160Z,98694.00
2019-05-18T12:18:25.028Z,98699.00
2019-05-18T12:20:55.650Z,98693.00
2019-05-18T12:23:26.299Z,98690.00
2019-05-18T12:25:57.023Z,98688.00
2019-05-18T12:28:27.616Z,98693.00
2019-05-18T12:31:01.979Z,98695.00
2019-05-18T12:33:32.295Z,98693.00
2019-05-18T12:36:02.900Z,98695.00
2019-05-18T12:38:33.527Z,98690.00
2019-05-18T12:41:05.561Z,98685.00
2019-05-18T12:43:36.116Z,98675.00
2019-05-18T12:46:06.681Z,98686.00
2019-05-18T12:48:37.365Z,98680.00
2019-05-18T12:51:07.941Z,98675.00
2019-05-18T12:53:38.765Z,98676.00
2019-05-18T12:56:10.592Z,98669.00
2019-05-18T12:58:41.222Z,98662.00
2019-05-18T13:01:11.809Z,98667.00
2019-05-18T13:03:43.540Z,98665.00
2019-05-18T13:06:14.285Z,98663.00
2019-05-18T13:08:44.814Z,98673.00
2019-05-18T13:11:15.581Z,98665.00
2019-05-18T13:13:46.141Z,98662.00
2019-05-18T13:16:16.723Z,98673.00
2019-05-18T13:18:47.275Z,98660.00
2019-05-18T13:21:18.901Z,98660.00
2019-05-18T13:23:49.472Z,98661.00
2019-05-18T13:26:20.129Z,98657.00
2019-05-18T13:28:52.038Z,98649.00
2019-05-18T13:31:22.612Z,98666.00
2019-05-18T13:33:53.162Z,98651.00
2019-05-18T13:36:23.899Z,98653.00
2019-05-18T13:38:54.469Z,98640.00
2019-05-18T13:41:26.562Z,98650.00
2019-05-18T13:43:57.403Z,98655.00
2019-05-18T13:46:27.978Z,98648.00
2019-05-18T13:48:58.569Z,98660.00
2019-05-18T13:51:30.608Z,98651.00
2019-05-18T13:54:01.985Z,98655.00
2019-05-18T13:56:35.105Z,98648.00
2019-05-18T13:59:09.736Z,98656.00
2019-05-18T14:01:41.491Z,98651.00
2019-05-18T14:04:12.042Z,98658.00
2019-05-18T14:06:42.734Z,98651.00
2019-05-18T14:09:13.327Z,98651.00
2019-05-18T14:11:44.178Z,98648.00
2019-05-18T14:14:14.732Z,98653.00
2019-05-18T14:16:45.291Z,98640.00
2019-05-18T14:19:15.941Z,98642.00
2019-05-18T14:21:46.520Z,98621.00
2019-05-18T14:24:17.160Z,98640.00
2019-05-18T14:26:47.754Z,98623.00
2019-05-18T14:29:18.326Z,98629.00
2019-05-18T14:31:48.906Z,98632.00
2019-05-18T14:34:19.460Z,98634.00
2019-05-18T14:36:50.050Z,98638.00
2019-05-18T14:39:23.193Z,98639.00
2019-05-18T14:41:52.941Z,98641.00
2019-05-18T14:44:28.259Z,98634.00
2019-05-18T14:46:59.112Z,98633.00
2019-05-18T14:49:29.675Z,98632.00
2019-05-18T14:52:00.308Z,98639.00
2019-05-18T14:54:31.010Z,98633.00
2019-05-18T14:57:01.585Z,98630.00
2019-05-18T14:59:32.101Z,98632.00
2019-05-18T15:02:02.725Z,98623.00
2019-05-18T15:04:33.324Z,98625.00
2019-05-18T15:07:03.938Z,98624.00
2019-05-18T15:09:34.714Z,98631.00
2019-05-18T15:12:06.745Z,98625.00
2019-05-18T15:14:37.317Z,98628.00
2019-05-18T15:17:07.920Z,98631.00
2019-05-18T15:19:42.327Z,98614.00
2019-05-18T15:22:13.152Z,98620.00
2019-05-18T15:24:43.835Z,98618.00
2019-05-18T15:27:14.429Z,98619.00
2019-05-18T15:29:45.083Z,98624.00
2019-05-18T15:32:15.791Z,98614.00
2019-05-18T15:34:46.325Z,98618.00
2019-05-18T15:37:16.991Z,98620.00
2019-05-18T15:39:47.532Z,98620.00
2019-05-18T15:42:18.140Z,98633.00
2019-05-18T15:44:48.746Z,98638.00
2019-05-18T15:47:19.332Z,98631.00
2019-05-18T15:49:51.350Z,98625.00
2019-05-18T15:52:40.985Z,98630.00
2019-05-18T15:55:12.876Z,98623.00
2019-05-18T15:57:43.448Z,98624.00
2019-05-18T16:00:15.114Z,98626.00
2019-05-18T16:02:45.681Z,98621.00
2019-05-18T16:05:16.617Z,98637.00
2019-05-18T16:07:47.414Z,98625.00
2019-05-18T16:10:19.361Z,98637.00
2019-05-18T16:12:49.931Z,98616.00
2019-05-18T16:15:20.789Z,98620.00
2019-05-18T16:17:51.378Z,98635.00
2019-05-18T16:20:22.114Z,98623.00
2019-05-18T16:22:52.736Z,98630.00
2019-05-18T16:25:23.353Z,98629.00
2019-05-18T16:27:53.894Z,98619.00
2019-05-18T16:30:24.822Z,98623.00
2019-05-18T16:32:55.388Z,98628.00
2019-05-18T16:35:26.035Z,98617.00
2019-05-18T16:37:56.883Z,98630.00
2019-05-18T16:40:27.429Z,98628.00
2019-05-18T16:42:58.061Z,98626.00
2019-05-18T16:45:28.627Z,98626.00
2019-05-18T16:47:59.233Z,98618.00
2019-05-18T16:50:29.811Z,98623.00
2019-05-18T16:53:00.356Z,98624.00
2019-05-18T16:55:31.165Z,98623.00
2019-05-18T16:58:01.747Z,98620.00
2019-05-18T17:00:32.306Z,98619.00
2019-05-18T17:03:02.844Z,98621.00
2019-05-18T17:05:33.428Z,98622.00
2019-05-18T17:08:03.976Z,98626.00
2019-05-18T17:10:34.754Z,98622.00
2019-05-18T17:13:05.306Z,98622.00
2019-05-18T17:15:35.874Z,98624.00
2019-05-18T17:18:06.592Z,98616.00
2019-05-18T17:20:38.244Z,98623.00
2019-05-18T17:23:08.759Z,98622.00
2019-05-18T17:25:39.391Z,98633.00
2019-05-18T17:28:09.928Z,98620.00
2019-05-18T17:30:42.666Z,98623.00
2019-05-18T17:33:12.817Z,98631.00
2019-05-18T17:35:57.938Z,98630.00
2019-05-18T17:38:15.797Z,98625.00
2019-05-18T17:40:46.422Z,98629.00
2019-05-18T17:43:17.006Z,98631.00
2019-05-18T17:45:49.149Z,98632.00
2019-05-18T17:48:19.701Z,98628.00
2019-05-18T17:50:50.288Z,98627.00
2019-05-18T17:53:20.810Z,98627.00
2019-05-18T17:55:51.495Z,98625.00
2019-05-18T17:58:22.149Z,98633.00
2019-05-18T18:00:52.724Z,98630.00
2019-05-18T18:03:23.298Z,98623.00
2019-05-18T18:05:53.982Z,98632.00
2019-05-18T18:08:24.487Z,98635.00
2019-05-18T18:10:55.146Z,98632.00
2019-05-18T18:13:25.776Z,98632.00
2019-05-18T18:15:56.439Z,98637.00
2019-05-18T18:18:28.129Z,98634.00
2019-05-18T18:20:58.711Z,98638.00
2019-05-18T18:23:29.438Z,98642.00
2019-05-18T18:26:00.189Z,98634.00
2019-05-18T18:28:30.781Z,98637.00
2019-05-18T18:31:01.413Z,98634.00
2019-05-18T18:33:32.076Z,98637.00
2019-05-18T18:36:02.712Z,98639.00
2019-05-18T18:38:33.255Z,98639.00
2019-05-18T18:41:03.873Z,98639.00
2019-05-18T18:43:34.440Z,98643.00
2019-05-18T18:46:05.064Z,98640.00
2019-05-18T18:48:35.631Z,98643.00
2019-05-18T18:51:06.190Z,98643.00
2019-05-18T18:53:36.828Z,98637.00
2019-05-18T18:56:07.484Z,98647.00
2019-05-18T18:58:38.044Z,98650.00
2019-05-18T19:01:10.410Z,98656.00
2019-05-18T19:03:40.944Z,98664.00
2019-05-18T19:06:11.649Z,98662.00
2019-05-18T19:08:42.131Z,98659.00
2019-05-18T19:11:12.990Z,98665.00
2019-05-18T19:13:45.660Z,98666.00
2019-05-18T19:16:16.058Z,98667.00
2019-05-18T19:18:48.103Z,98676.00
2019-05-18T19:21:18.695Z,98674.00
2019-05-18T19:23:49.231Z,98676.00
2019-05-18T19:26:19.810Z,98685.00
2019-05-18T19:28:52.268Z,98676.00
2019-05-18T19:31:22.888Z,98685.00
2019-05-18T19:33:53.427Z,98679.00
2019-05-18T19:36:24.129Z,98688.00
2019-05-18T19:38:54.758Z,98687.00
2019-05-18T19:41:25.317Z,98684.00
2019-05-18T19:43:55.847Z,98675.00
2019-05-18T19:46:26.406Z,98688.00
2019-05-18T19:48:58.983Z,98699.00
2019-05-18T19:51:29.577Z,98690.00
2019-05-18T19:54:19.203Z,98700.00
2019-05-18T19:56:50.409Z,98704.00
2019-05-18T19:59:21.249Z,98703.00
2019-05-18T20:01:51.887Z,98702.00
2019-05-18T20:04:22.565Z,98702.00
2019-05-18T20:06:53.143Z,98698.00
2019-05-18T20:09:23.793Z,98701.00
2019-05-18T20:11:55.321Z,98703.00
2019-05-18T20:14:25.942Z,98697.00
2019-05-18T20:16:56.548Z,98702.00
2019-05-18T20:19:38.705Z,98702.00
2019-05-18T20:22:00.663Z,98692.00
2019-05-18T20:24:32.308Z,98699.00
2019-05-18T20:27:02.910Z,98704.00
2019-05-18T20:29:33.432Z,98691.00
2019-05-18T20:32:04.125Z,98692.00
2019-05-18T20:34:34.683Z,98689.00
2019-05-18T20:37:05.238Z,98702.00
2019-05-18T20:39:35.897Z,98700.00
2019-05-18T20:42:06.458Z,98694.00
2019-05-18T20:44:36.990Z,98705.00
2019-05-18T20:47:07.545Z,98701.00
2019-05-18T20:49:38.102Z,98701.00
2019-05-18T20:52:08.670Z,98704.00
2019-05-18T20:54:39.201Z,98697.00
2019-05-18T20:57:09.959Z,98688.00
2019-05-18T20:59:40.490Z,98694.00
2019-05-18T21:02:12.251Z,98694.00
2019-05-18T21:04:42.814Z,98696.00
2019-05-18T21:07:13.754Z,98693.00
2019-05-18T21:09:44.324Z,98698.00
2019-05-18T21:12:14.879Z,98695.00
2019-05-18T21:14:45.626Z,98698.00
2019-05-18T21:17:16.312Z,98690.00
2019-05-18T21:19:46.831Z,98686.00
2019-05-18T21:22:17.412Z,98693.00
2019-05-18T21:24:49.098Z,98690.00
2019-05-18T21:27:19.794Z,98695.00
2019-05-18T21:29:50.465Z,98696.00
2019-05-18T21:32:22.287Z,98688.00
2019-05-18T21:34:52.878Z,98690.00
2019-05-18T21:37:23.738Z,98688.00
2019-05-18T21:39:54.464Z,98687.00
2019-05-18T21:42:25.030Z,98679.00
2019-05-18T21:44:55.559Z,98681.00
2019-05-18T21:47:26.131Z,98684.00
2019-05-18T21:49:58.798Z,98673.00
2019-05-18T21:52:29.506Z,98685.00
2019-05-18T21:55:00.212Z,98678.00
2019-05-18T21:57:30.866Z,98683.00
2019-05-18T22:00:01.385Z,98688.00
2019-05-18T22:02:32.078Z,98678.00
2019-05-18T22:05:02.601Z,98680.00
2019-05-18T22:07:33.265Z,98674.00
2019-05-18T22:10:04.429Z,98679.00
2019-05-18T22:12:35.230Z,98680.00
2019-05-18T22:15:08.520Z,98674.00
2019-05-18T22:17:58.051Z,98681.00
2019-05-18T22:20:28.562Z,98676.00
2019-05-18T22:22:59.327Z,98677.00
2019-05-18T22:25:29.975Z,98674.00
2019-05-18T22:28:00.594Z,98669.00
2019-05-18T22:30:31.264Z,98669.00
2019-05-18T22:33:01.810Z,98675.00
2019-05-18T22:35:32.364Z,98669.00
2019-05-18T22:38:03.020Z,98676.00
2019-05-18T22:40:33.607Z,98669.00
2019-05-18T22:43:04.165Z,98657.00
2019-05-18T22:45:34.777Z,98664.00
2019-05-18T22:48:05.354Z,98663.00
2019-05-18T22:50:35.873Z,98661.00
2019-05-18T22:53:06.605Z,98653.00
2019-05-18T22:55:37.150Z,98654.00
2019-05-18T22:58:07.888Z,98649.00
2019-05-18T23:00:38.461Z,98648.00
2019-05-18T23:03:09.013Z,98653.00
2019-05-18T23:05:39.630Z,98657.00
2019-05-18T23:08:10.301Z,98647.00
2019-05-18T23:10:40.827Z,98643.00
2019-05-18T23:13:12.859Z,98654.00
2019-05-18T23:15:43.416Z,98654.00
2019-05-18T23:18:14.003Z,98649.00
2019-05-18T23:20:44.655Z,98646.00
2019-05-18T23:23:15.278Z,98641.00
2019-05-18T23:25:45.825Z,98632.00
2019-05-18T23:28:16.381Z,98630.00
2019-05-18T23:30:46.988Z,98629.00
2019-05-18T23:33:17.586Z,98632.00
2019-05-18T23:35:48.210Z,98619.00
2019-05-18T23:38:18.764Z,98620.00
2019-05-18T23:40:49.377Z,98616.00
2019-05-18T23:43:19.987Z,98620.00
2019-05-18T23:45:50.602Z,98605.00
2019-05-18T23:48:21.190Z,98603.00
2019-05-18T23:50:52.832Z,98603.00
2019-05-18T23:53:23.416Z,98604.00
2019-05-18T23:55:53.903Z,98603.00
2019-05-18T23:58:24.548Z,98607.00
